Decoded Metar for GCHI (HIERRO in SPAIN) (IATA:VDE) | Meteo·Mobile Aviation Weather
aviador You're here:

GCHI Decoded Metar

HIERRO in SPAIN
Report Time2018-12-14 12:30:00
UTC Time2018-12-14 13:04:37
Flight Rules vfr VFR
Wind020° at 13 kt
W.Decomp.*RWY 34: 8.9 kt HW 9.5 kt RCW
W.Rank020° ranks 4
Current wind is above 020° avg. (11.7)
Visibility9999 m
Phenomena:N/A
Clouds:Few 017 Hf
Scattered 025 Hf
Expected CloudBase > 2,000 ft AGL from Temp-Dew spread
CeilingNone
Temp22°C (ISA +7)
Dew Point17°C (73% RH)
AAT19.7°C
QNH1028 hPa
Density Alt689 ft
Elevation98 ft
Report Wrong Elevation
Raw Report
GCHI 141230Z 02013KT 350V050 9999 FEW017 SCT025 22/17 Q1028=

Extra information for GCHI:More info

Metar Taf Metar & Taf Last 4 Metars F.Rules Stats Wind Profile Meteogram Temp Stats Airport Information Weather charts Add Link Nearby VenuesMetar ALERT Operation Metar Decoded Social comments